createdAt,value
2023-02-28T00:01:53.421Z,64.71
2023-02-28T00:04:26.487Z,66.36
2023-02-28T00:06:59.490Z,65.43
2023-02-28T00:09:34.044Z,65.89
2023-02-28T00:12:11.013Z,65.29
2023-02-28T00:14:43.979Z,66.70
2023-02-28T00:17:18.741Z,65.83
2023-02-28T00:19:52.912Z,65.43
2023-02-28T00:22:26.013Z,65.18
2023-02-28T00:25:00.285Z,64.83
2023-02-28T00:27:33.361Z,65.63
2023-02-28T00:30:09.226Z,67.68
2023-02-28T00:32:42.318Z,67.42
2023-02-28T00:35:15.753Z,66.18
2023-02-28T00:37:50.589Z,68.26
2023-02-28T00:40:24.941Z,66.69
2023-02-28T00:42:57.898Z,67.02
2023-02-28T00:45:30.986Z,68.71
2023-02-28T00:48:05.107Z,67.73
2023-02-28T00:50:38.171Z,69.16
2023-02-28T00:53:11.126Z,67.60
2023-02-28T00:55:45.774Z,67.69
2023-02-28T00:58:19.248Z,67.96
2023-02-28T01:00:53.671Z,67.34
2023-02-28T01:03:27.094Z,67.36
2023-02-28T01:06:00.496Z,68.68
2023-02-28T01:08:33.628Z,68.12
2023-02-28T01:11:13.386Z,68.37
2023-02-28T01:13:48.301Z,69.36
2023-02-28T01:16:21.448Z,68.90
2023-02-28T01:18:54.582Z,70.76
2023-02-28T01:21:28.201Z,69.48
2023-02-28T01:24:01.414Z,71.01
2023-02-28T01:26:36.021Z,70.16
2023-02-28T01:29:09.092Z,70.31
2023-02-28T01:31:42.082Z,69.27
2023-02-28T01:34:15.138Z,71.59
2023-02-28T01:36:48.137Z,69.86
2023-02-28T01:39:21.122Z,71.24
2023-02-28T01:41:55.451Z,70.64
2023-02-28T01:45:06.434Z,70.85
2023-02-28T01:47:43.671Z,71.45
2023-02-28T01:50:21.455Z,71.79
2023-02-28T01:52:57.488Z,70.97
2023-02-28T01:55:31.554Z,70.88
2023-02-28T01:58:10.175Z,71.82
2023-02-28T02:00:43.705Z,72.15
2023-02-28T02:03:20.857Z,71.11
2023-02-28T02:05:54.031Z,71.69
2023-02-28T02:08:30.412Z,72.72
2023-02-28T02:11:04.444Z,71.54
2023-02-28T02:14:09.221Z,71.69
2023-02-28T02:17:07.011Z,73.03
2023-02-28T02:20:27.118Z,72.49
2023-02-28T02:23:32.807Z,72.23
2023-02-28T02:26:36.911Z,73.05
2023-02-28T02:29:54.369Z,73.73
2023-02-28T02:33:16.666Z,73.70
2023-02-28T02:35:56.828Z,72.63
2023-02-28T02:38:37.123Z,74.10
2023-02-28T02:41:16.400Z,72.60
2023-02-28T02:43:54.763Z,73.68
2023-02-28T02:46:32.482Z,72.35
2023-02-28T02:49:10.308Z,72.61
2023-02-28T02:51:46.505Z,73.28
2023-02-28T02:54:23.238Z,72.94
2023-02-28T02:56:57.703Z,74.70
2023-02-28T02:59:32.333Z,74.81
2023-02-28T03:02:10.370Z,74.07
2023-02-28T03:04:48.541Z,73.52
2023-02-28T03:07:23.036Z,74.57
2023-02-28T03:09:58.371Z,73.43
2023-02-28T03:12:42.889Z,74.55
2023-02-28T03:15:23.745Z,73.17
2023-02-28T03:18:06.781Z,73.89
2023-02-28T03:20:49.297Z,72.69
2023-02-28T03:23:31.732Z,73.99
2023-02-28T03:26:10.201Z,73.54
2023-02-28T03:28:53.382Z,74.53
2023-02-28T03:31:33.396Z,74.27
2023-02-28T03:34:12.926Z,73.92
2023-02-28T03:36:50.472Z,73.22
2023-02-28T03:39:31.022Z,74.52
2023-02-28T03:42:09.520Z,74.22
2023-02-28T03:44:45.373Z,74.60
2023-02-28T03:47:24.372Z,73.30
2023-02-28T03:50:01.327Z,72.79
2023-02-28T03:52:42.104Z,74.81
2023-02-28T03:55:17.899Z,74.82
2023-02-28T03:58:02.425Z,74.21
2023-02-28T04:00:39.267Z,73.75
2023-02-28T04:03:12.337Z,73.65
2023-02-28T04:05:52.956Z,74.43
2023-02-28T04:08:26.045Z,73.93
2023-02-28T04:11:06.870Z,74.30
2023-02-28T04:13:39.850Z,74.52
2023-02-28T04:16:18.766Z,73.73
2023-02-28T04:19:02.959Z,73.47
2023-02-28T04:21:39.897Z,73.62
2023-02-28T04:24:15.987Z,73.52
2023-02-28T04:26:53.013Z,74.64
2023-02-28T04:29:28.687Z,74.18
2023-02-28T04:32:03.421Z,74.40
2023-02-28T04:34:36.641Z,75.36
2023-02-28T04:37:13.845Z,75.13
2023-02-28T04:39:47.164Z,75.76
2023-02-28T04:42:21.513Z,75.66
2023-02-28T04:44:54.647Z,75.04
2023-02-28T04:47:27.629Z,74.21
2023-02-28T04:50:00.607Z,74.31
2023-02-28T04:52:33.632Z,74.87
2023-02-28T04:55:07.995Z,72.76
2023-02-28T04:57:43.588Z,73.09
2023-02-28T05:00:17.737Z,75.17
2023-02-28T05:02:50.720Z,75.58
2023-02-28T05:05:23.899Z,72.71
2023-02-28T05:07:57.256Z,74.38
2023-02-28T05:10:30.761Z,74.10
2023-02-28T05:13:05.537Z,72.86
2023-02-28T05:15:38.569Z,74.11
2023-02-28T05:18:11.783Z,75.07
2023-02-28T05:20:44.747Z,73.59
2023-02-28T05:23:19.718Z,73.55
2023-02-28T05:25:53.130Z,74.42
2023-02-28T05:28:27.444Z,74.85
2023-02-28T05:31:00.474Z,74.92
2023-02-28T05:33:33.851Z,74.70
2023-02-28T05:36:08.652Z,73.64
2023-02-28T05:38:41.787Z,74.64
2023-02-28T05:41:14.856Z,74.32
2023-02-28T05:43:49.786Z,73.70
2023-02-28T05:46:23.007Z,74.37
2023-02-28T05:48:56.785Z,74.25
2023-02-28T05:51:30.336Z,73.47
2023-02-28T05:54:03.981Z,73.18
2023-02-28T05:56:38.731Z,73.22
2023-02-28T05:59:13.452Z,75.03
2023-02-28T06:01:49.270Z,74.57
2023-02-28T06:04:31.509Z,74.52
2023-02-28T06:07:05.313Z,74.33
2023-02-28T06:09:39.156Z,75.18
2023-02-28T06:12:13.114Z,75.04
2023-02-28T06:14:47.542Z,76.02
2023-02-28T06:17:20.700Z,74.37
2023-02-28T06:19:53.935Z,74.44
2023-02-28T06:22:27.267Z,75.74
2023-02-28T06:25:00.417Z,75.70
2023-02-28T06:27:34.551Z,73.08
2023-02-28T06:30:11.627Z,73.08
2023-02-28T06:32:44.949Z,73.09
2023-02-28T06:35:18.434Z,74.67
2023-02-28T06:37:51.546Z,73.71
2023-02-28T06:40:24.863Z,75.14
2023-02-28T06:42:58.010Z,76.29
2023-02-28T06:45:32.663Z,76.05
2023-02-28T06:48:06.072Z,75.85
2023-02-28T06:50:39.501Z,74.77
2023-02-28T06:53:12.633Z,74.21
2023-02-28T06:55:45.736Z,74.59
2023-02-28T06:58:19.951Z,74.57
2023-02-28T07:00:55.237Z,73.40
2023-02-28T07:03:28.320Z,75.54
2023-02-28T07:06:02.068Z,74.36
2023-02-28T07:08:35.444Z,73.28
2023-02-28T07:11:08.429Z,74.47
2023-02-28T07:13:41.444Z,73.74
2023-02-28T07:16:15.836Z,74.14
2023-02-28T07:18:49.226Z,73.02
2023-02-28T07:21:22.248Z,73.42
2023-02-28T07:23:55.260Z,73.97
2023-02-28T07:26:28.269Z,72.63
2023-02-28T07:29:01.352Z,73.11
2023-02-28T07:31:35.700Z,73.77
2023-02-28T07:34:08.916Z,71.72
2023-02-28T07:36:42.103Z,72.46
2023-02-28T07:39:15.191Z,72.68
2023-02-28T07:41:48.159Z,72.60
2023-02-28T07:44:22.076Z,73.40
2023-02-28T07:46:56.673Z,73.25
2023-02-28T07:49:29.694Z,74.11
2023-02-28T07:52:02.662Z,72.17
2023-02-28T07:54:36.174Z,73.42
2023-02-28T07:57:09.120Z,73.78
2023-02-28T07:59:42.044Z,73.59
2023-02-28T08:02:18.145Z,73.05
2023-02-28T08:04:51.370Z,73.29
2023-02-28T08:07:24.381Z,72.87
2023-02-28T08:09:57.458Z,72.99
2023-02-28T08:12:30.455Z,72.06
2023-02-28T08:15:03.434Z,71.87
2023-02-28T08:17:37.774Z,71.52
2023-02-28T08:20:12.616Z,72.10
2023-02-28T08:22:46.387Z,70.65
2023-02-28T08:25:20.232Z,71.18
2023-02-28T08:27:53.998Z,71.50
2023-02-28T08:30:26.976Z,72.41
2023-02-28T08:33:02.746Z,71.33
2023-02-28T08:35:38.380Z,71.07
2023-02-28T08:38:11.355Z,70.61
2023-02-28T08:40:44.379Z,70.22
2023-02-28T08:43:17.540Z,69.52
2023-02-28T08:45:53.889Z,69.36
2023-02-28T08:48:30.755Z,69.01
2023-02-28T08:51:10.167Z,69.53
2023-02-28T08:53:43.323Z,68.79
2023-02-28T08:56:18.322Z,67.71
2023-02-28T08:58:52.500Z,66.53
2023-02-28T09:01:29.500Z,66.44
2023-02-28T09:04:04.297Z,66.08
2023-02-28T09:06:37.663Z,66.22
2023-02-28T09:09:10.702Z,66.47
2023-02-28T09:11:43.745Z,66.14
2023-02-28T09:14:18.409Z,65.03
2023-02-28T09:16:51.716Z,65.94
2023-02-28T09:19:26.042Z,65.13
2023-02-28T09:21:59.318Z,64.30
2023-02-28T09:24:32.857Z,65.06
2023-02-28T09:27:07.209Z,64.82
2023-02-28T09:29:40.522Z,64.18
2023-02-28T09:32:13.629Z,64.00
2023-02-28T09:34:47.955Z,64.23
2023-02-28T09:37:20.932Z,64.16
2023-02-28T09:39:53.967Z,63.41
2023-02-28T09:42:33.719Z,64.61
2023-02-28T09:45:18.179Z,63.36
2023-02-28T09:47:54.349Z,63.52
2023-02-28T09:50:36.207Z,63.54
2023-02-28T09:53:22.403Z,62.42
2023-02-28T09:56:00.664Z,62.49
2023-02-28T09:58:44.102Z,61.78
2023-02-28T10:01:30.420Z,62.10
2023-02-28T10:04:10.419Z,62.67
2023-02-28T10:06:50.942Z,61.68
2023-02-28T10:09:29.343Z,61.75
2023-02-28T10:12:06.728Z,61.16
2023-02-28T10:14:51.612Z,60.06
2023-02-28T10:17:28.923Z,58.61
2023-02-28T10:20:11.882Z,58.08
2023-02-28T10:22:55.605Z,56.78
2023-02-28T10:25:31.174Z,57.81
2023-02-28T10:28:13.303Z,57.86
2023-02-28T10:30:50.226Z,56.58
2023-02-28T10:33:27.012Z,57.28
2023-02-28T10:36:01.553Z,57.23
2023-02-28T10:38:39.016Z,57.87
2023-02-28T10:41:16.125Z,57.01
2023-02-28T10:43:49.118Z,57.24
2023-02-28T10:46:26.830Z,55.86
2023-02-28T10:49:05.905Z,56.17
2023-02-28T10:51:41.674Z,56.49
2023-02-28T10:54:21.965Z,56.30
2023-02-28T10:57:19.247Z,56.57
2023-02-28T10:59:53.784Z,57.48
2023-02-28T11:02:36.578Z,55.82
2023-02-28T11:05:28.763Z,56.14
2023-02-28T11:08:08.902Z,55.64
2023-02-28T11:10:48.202Z,54.80
2023-02-28T11:13:26.486Z,54.42
2023-02-28T11:16:03.156Z,54.20
2023-02-28T11:18:44.015Z,53.93
2023-02-28T11:21:29.870Z,54.13
2023-02-28T11:24:07.700Z,52.92
2023-02-28T11:26:45.171Z,53.08
2023-02-28T11:29:23.405Z,54.62
2023-02-28T11:32:15.238Z,54.55
2023-02-28T11:35:03.234Z,54.28
2023-02-28T11:37:36.295Z,53.65
2023-02-28T11:40:16.518Z,52.60
2023-02-28T11:43:15.612Z,52.94
2023-02-28T11:46:08.999Z,53.39
2023-02-28T11:48:53.920Z,53.36
2023-02-28T11:51:34.532Z,53.07
2023-02-28T11:54:27.981Z,53.40
2023-02-28T11:57:09.240Z,53.73
2023-02-28T12:00:00.377Z,53.65
2023-02-28T12:02:53.044Z,53.86
2023-02-28T12:05:34.187Z,53.41
2023-02-28T12:08:25.156Z,54.09
2023-02-28T12:11:13.014Z,53.91
2023-02-28T12:14:00.293Z,53.47
2023-02-28T12:17:03.352Z,52.84
2023-02-28T12:19:46.971Z,53.21
2023-02-28T12:22:45.691Z,52.54
2023-02-28T12:25:44.425Z,52.34
2023-02-28T12:28:23.804Z,51.99
2023-02-28T12:31:02.566Z,52.50
2023-02-28T12:33:42.810Z,51.74
2023-02-28T12:36:23.014Z,51.62
2023-02-28T12:39:02.496Z,52.21
2023-02-28T12:41:41.419Z,51.43
2023-02-28T12:44:20.148Z,51.65
2023-02-28T12:46:56.605Z,51.96
2023-02-28T12:49:35.566Z,51.45
2023-02-28T12:52:12.143Z,51.62
2023-02-28T12:54:53.300Z,52.23
2023-02-28T12:57:36.067Z,51.49
2023-02-28T13:00:16.306Z,51.78
2023-02-28T13:03:31.225Z,52.31
2023-02-28T13:06:24.710Z,51.00
2023-02-28T13:09:07.548Z,51.36
2023-02-28T13:11:44.662Z,52.13
2023-02-28T13:14:28.884Z,52.23
2023-02-28T13:17:11.746Z,52.11
2023-02-28T13:19:48.712Z,52.35
2023-02-28T13:22:41.096Z,51.99
2023-02-28T13:25:55.537Z,51.75
2023-02-28T13:29:23.858Z,51.17
2023-02-28T13:32:43.016Z,50.99
2023-02-28T13:35:46.133Z,51.63
2023-02-28T13:38:36.820Z,51.32
2023-02-28T13:41:48.608Z,50.96
2023-02-28T13:44:24.950Z,51.07
2023-02-28T13:47:24.746Z,49.99
2023-02-28T13:50:25.998Z,50.62
2023-02-28T13:53:39.233Z,50.83
2023-02-28T13:56:29.781Z,51.08
2023-02-28T13:59:15.585Z,51.10
2023-02-28T14:02:05.692Z,50.95
2023-02-28T14:04:56.458Z,50.74
2023-02-28T14:07:36.298Z,50.86
2023-02-28T14:10:26.897Z,50.95
2023-02-28T14:13:14.794Z,50.58
2023-02-28T14:15:58.643Z,50.10
2023-02-28T14:18:34.442Z,50.85
2023-02-28T14:21:26.386Z,50.93
2023-02-28T14:24:43.916Z,50.79
2023-02-28T14:27:36.715Z,49.97
2023-02-28T14:30:44.396Z,50.40
2023-02-28T14:33:29.041Z,50.57
2023-02-28T14:36:19.671Z,50.67
2023-02-28T14:38:55.258Z,50.76
2023-02-28T14:41:36.236Z,50.99
2023-02-28T14:44:21.076Z,51.21
2023-02-28T14:46:57.309Z,50.24
2023-02-28T14:49:33.044Z,49.88
2023-02-28T14:52:15.141Z,49.86
2023-02-28T14:54:53.887Z,50.12
2023-02-28T14:57:30.699Z,51.33
2023-02-28T15:00:14.691Z,50.71
2023-02-28T15:02:47.769Z,49.99
2023-02-28T15:05:31.098Z,50.49
2023-02-28T15:08:09.120Z,50.82
2023-02-28T15:10:45.098Z,50.81
2023-02-28T15:13:18.897Z,51.45
2023-02-28T15:16:02.473Z,50.62
2023-02-28T15:18:47.091Z,51.18
2023-02-28T15:21:23.170Z,52.00
2023-02-28T15:24:01.554Z,51.66
2023-02-28T15:26:37.782Z,51.84
2023-02-28T15:29:17.271Z,51.84
2023-02-28T15:31:58.301Z,52.60
2023-02-28T15:34:43.384Z,51.89
2023-02-28T15:37:43.178Z,52.06
2023-02-28T15:40:19.682Z,52.03
2023-02-28T15:43:15.235Z,51.26
2023-02-28T15:45:51.168Z,51.02
2023-02-28T15:48:28.901Z,51.18
2023-02-28T15:51:08.592Z,51.75
2023-02-28T15:53:49.922Z,51.76
2023-02-28T15:56:28.076Z,52.29
2023-02-28T15:59:05.440Z,51.84
2023-02-28T16:01:40.422Z,51.96
2023-02-28T16:04:19.341Z,52.96
2023-02-28T16:07:04.677Z,53.26
2023-02-28T16:09:38.593Z,53.84
2023-02-28T16:12:14.429Z,53.96
2023-02-28T16:14:48.426Z,53.66
2023-02-28T16:17:24.248Z,53.92
2023-02-28T16:19:59.116Z,53.87
2023-02-28T16:22:32.097Z,54.10
2023-02-28T16:25:08.832Z,54.50
2023-02-28T16:27:42.458Z,54.15
2023-02-28T16:30:22.835Z,54.14
2023-02-28T16:32:57.593Z,55.15
2023-02-28T16:35:31.914Z,54.92
2023-02-28T16:38:05.066Z,54.83
2023-02-28T16:40:38.756Z,54.97
2023-02-28T16:43:18.652Z,54.90
2023-02-28T16:46:01.155Z,55.19
2023-02-28T16:48:34.459Z,54.78
2023-02-28T16:51:13.077Z,55.55
2023-02-28T16:53:47.078Z,55.30
2023-02-28T16:56:22.676Z,55.25
2023-02-28T16:59:02.210Z,56.27
2023-02-28T17:01:35.572Z,55.64
2023-02-28T17:04:10.391Z,56.38
2023-02-28T17:06:44.785Z,56.21
2023-02-28T17:09:21.007Z,56.76
2023-02-28T17:11:54.843Z,56.65
2023-02-28T17:14:27.934Z,56.29
2023-02-28T17:17:00.991Z,56.61
2023-02-28T17:19:34.526Z,57.19
2023-02-28T17:22:10.907Z,57.79
2023-02-28T17:24:43.905Z,57.92
2023-02-28T17:27:16.888Z,57.24
2023-02-28T17:29:49.988Z,57.36
2023-02-28T17:32:23.007Z,57.60
2023-02-28T17:34:55.989Z,57.41
2023-02-28T17:37:31.189Z,57.71
2023-02-28T17:40:05.128Z,58.63
2023-02-28T17:42:38.134Z,58.41
2023-02-28T17:45:12.117Z,58.73
2023-02-28T17:47:48.936Z,58.78
2023-02-28T17:50:24.053Z,58.82
2023-02-28T17:52:59.431Z,58.78
2023-02-28T17:55:32.368Z,59.17
2023-02-28T17:58:05.825Z,59.21
2023-02-28T18:00:39.184Z,59.73
2023-02-28T18:03:13.780Z,60.37
2023-02-28T18:05:46.760Z,61.19
2023-02-28T18:08:21.219Z,61.33
2023-02-28T18:10:54.713Z,61.50
2023-02-28T18:13:28.616Z,61.41
2023-02-28T18:16:01.620Z,62.29
2023-02-28T18:18:38.066Z,61.71
2023-02-28T18:21:14.832Z,62.91
2023-02-28T18:23:50.030Z,63.69
2023-02-28T18:26:23.005Z,64.21
2023-02-28T18:28:55.965Z,64.97
2023-02-28T18:31:29.001Z,65.31
2023-02-28T18:34:02.733Z,65.66
2023-02-28T18:36:35.657Z,65.25
2023-02-28T18:39:11.944Z,67.18
2023-02-28T18:41:44.941Z,67.34
2023-02-28T18:44:20.162Z,68.47
2023-02-28T18:46:53.805Z,68.70
2023-02-28T18:49:26.849Z,69.21
2023-02-28T18:51:59.830Z,69.14
2023-02-28T18:54:34.145Z,69.68
2023-02-28T18:57:07.205Z,69.16
2023-02-28T18:59:40.159Z,70.38
2023-02-28T19:02:13.113Z,70.01
2023-02-28T19:04:46.167Z,70.64
2023-02-28T19:07:19.162Z,70.43
2023-02-28T19:09:53.450Z,70.68
2023-02-28T19:12:26.578Z,70.93
2023-02-28T19:15:00.235Z,71.20
2023-02-28T19:17:33.465Z,71.43
2023-02-28T19:20:09.147Z,71.65
2023-02-28T19:22:42.522Z,71.46
2023-02-28T19:25:17.248Z,72.25
2023-02-28T19:27:53.371Z,72.44
2023-02-28T19:30:26.698Z,73.28
2023-02-28T19:32:59.679Z,72.76
2023-02-28T19:35:32.758Z,73.57
2023-02-28T19:38:05.709Z,73.84
2023-02-28T19:40:40.348Z,73.90
2023-02-28T19:43:13.676Z,74.48
2023-02-28T19:45:47.375Z,74.41
2023-02-28T19:48:25.030Z,75.24
2023-02-28T19:50:59.630Z,75.44
2023-02-28T19:53:34.418Z,75.59
2023-02-28T19:56:10.052Z,75.90
2023-02-28T19:58:43.042Z,75.20
2023-02-28T20:01:19.217Z,75.27
2023-02-28T20:03:52.821Z,75.98
2023-02-28T20:06:25.828Z,76.00
2023-02-28T20:08:58.857Z,76.47
2023-02-28T20:11:33.154Z,77.12
2023-02-28T20:14:06.242Z,77.39
2023-02-28T20:16:42.484Z,76.75
2023-02-28T20:19:15.426Z,76.93
2023-02-28T20:21:48.387Z,76.91
2023-02-28T20:24:25.704Z,76.71
2023-02-28T20:27:00.057Z,77.38
2023-02-28T20:29:34.419Z,76.90
2023-02-28T20:32:08.127Z,77.42
2023-02-28T20:34:41.428Z,76.98
2023-02-28T20:37:14.399Z,78.74
2023-02-28T20:39:48.456Z,77.72
2023-02-28T20:42:22.773Z,78.74
2023-02-28T20:44:55.710Z,77.86
2023-02-28T20:47:29.400Z,79.18
2023-02-28T20:50:02.366Z,79.59
2023-02-28T20:52:35.347Z,78.27
2023-02-28T20:55:09.479Z,79.74
2023-02-28T20:57:43.799Z,78.50
2023-02-28T21:00:19.425Z,80.09
2023-02-28T21:02:52.394Z,79.99
2023-02-28T21:05:25.527Z,79.00
2023-02-28T21:07:58.522Z,79.87
2023-02-28T21:10:32.197Z,79.03
2023-02-28T21:13:06.494Z,79.49
2023-02-28T21:15:40.351Z,80.04
2023-02-28T21:18:13.418Z,80.63
2023-02-28T21:20:46.780Z,80.88
2023-02-28T21:23:19.744Z,80.25
2023-02-28T21:25:53.332Z,80.86
2023-02-28T21:28:27.651Z,80.13
2023-02-28T21:31:04.951Z,80.61
2023-02-28T21:33:38.001Z,81.15
2023-02-28T21:36:14.444Z,80.18
2023-02-28T21:38:50.990Z,80.38
2023-02-28T21:41:25.491Z,80.20
2023-02-28T21:43:59.811Z,81.00
2023-02-28T21:46:33.325Z,80.56
2023-02-28T21:49:06.539Z,81.79
2023-02-28T21:51:39.880Z,81.46
2023-02-28T21:54:13.295Z,80.01
2023-02-28T21:56:46.269Z,81.15
2023-02-28T21:59:21.274Z,80.41
2023-02-28T22:01:54.995Z,81.10
2023-02-28T22:04:28.020Z,81.81
2023-02-28T22:07:00.965Z,81.97
2023-02-28T22:09:33.954Z,81.76
2023-02-28T22:12:08.478Z,82.09
2023-02-28T22:14:45.259Z,82.45
2023-02-28T22:17:18.211Z,82.91
2023-02-28T22:19:51.164Z,82.69
2023-02-28T22:22:24.901Z,82.13
2023-02-28T22:24:58.084Z,82.83
2023-02-28T22:27:31.056Z,81.51
2023-02-28T22:30:06.298Z,81.78
2023-02-28T22:32:39.250Z,83.17
2023-02-28T22:35:12.187Z,81.77
2023-02-28T22:37:45.138Z,82.50
2023-02-28T22:40:18.319Z,83.38
2023-02-28T22:42:51.545Z,83.90
2023-02-28T22:45:27.200Z,83.12
2023-02-28T22:48:00.158Z,82.07
2023-02-28T22:50:33.826Z,84.03
2023-02-28T22:53:06.818Z,83.46
2023-02-28T22:55:39.792Z,82.45
2023-02-28T22:58:12.769Z,83.15
2023-02-28T23:00:47.181Z,81.77
2023-02-28T23:03:20.145Z,83.36
2023-02-28T23:05:53.362Z,83.69
2023-02-28T23:08:26.331Z,83.14
2023-02-28T23:10:59.314Z,83.28
2023-02-28T23:13:32.337Z,82.03
2023-02-28T23:16:09.442Z,83.30
2023-02-28T23:18:42.471Z,81.81
2023-02-28T23:21:15.483Z,81.76
2023-02-28T23:23:48.509Z,82.08
2023-02-28T23:26:21.602Z,82.96
2023-02-28T23:28:54.584Z,81.71
2023-02-28T23:31:28.946Z,83.22
2023-02-28T23:34:01.981Z,82.77
2023-02-28T23:36:35.128Z,82.09
2023-02-28T23:39:09.392Z,82.92
2023-02-28T23:41:42.353Z,83.27
2023-02-28T23:44:16.925Z,81.82
2023-02-28T23:46:53.140Z,82.95
2023-02-28T23:49:26.196Z,83.17
2023-02-28T23:51:59.925Z,82.50
2023-02-28T23:54:33.203Z,81.85
2023-02-28T23:57:07.567Z,82.79
2023-02-28T23:59:40.933Z,81.86
